CP3118 SLET-SLCB
Flight info
| Callsign | CP3118 |
|---|---|
| Flight time | 1h 1m |
| Altitude | 11500 |
| Route | SANSO/N0177F120 |
| Aircraft | C208/L-SDFGR/C |
Departure
| Time | 2026-04-21 23:55 |
|---|---|
| Airport | El Trompillo Airport (SLET) |
Arrival
| Time | 2026-04-22 00:57 |
|---|---|
| Airport | Jorge Wilsterman International Airport (SLCB) |
| Time | Latitude | Longitude | Altitude | Speed | Heading |
|---|---|---|---|---|---|
| 2026-04-21 23:51 | -17.80908 | -63.17327 | 1375 ft | 0 kts | 140° |
| 2026-04-21 23:53 | -17.80967 | -63.17289 | 1373 ft | 29 kts | 154° |
| 2026-04-21 23:53 | -17.81221 | -63.17097 | 1373 ft | 59 kts | 142° |
| 2026-04-21 23:53 | -17.81424 | -63.16944 | 1372 ft | 34 kts | 150° |
| 2026-04-21 23:53 | -17.81522 | -63.16869 | 1370 ft | 35 kts | 144° |
| 2026-04-21 23:54 | -17.81644 | -63.16779 | 1369 ft | 41 kts | 143° |
| 2026-04-21 23:54 | -17.81804 | -63.16672 | 1367 ft | 21 kts | 71° |
| 2026-04-21 23:54 | -17.81766 | -63.16678 | 1367 ft | 0 kts | 326° |
| 2026-04-21 23:54 | -17.81744 | -63.16695 | 1368 ft | 25 kts | 322° |
| 2026-04-21 23:55 | -17.81395 | -63.16956 | 1374 ft | 94 kts | 329° |
| 2026-04-21 23:55 | -17.80811 | -63.17378 | 1651 ft | 112 kts | 320° |
| 2026-04-21 23:55 | -17.80251 | -63.17928 | 2082 ft | 110 kts | 313° |
| 2026-04-21 23:55 | -17.79798 | -63.18615 | 2249 ft | 131 kts | 288° |
| 2026-04-21 23:56 | -17.79810 | -63.19631 | 2322 ft | 144 kts | 252° |
| 2026-04-21 23:56 | -17.80385 | -63.20445 | 2665 ft | 138 kts | 216° |
| 2026-04-21 23:56 | -17.81269 | -63.20728 | 3010 ft | 135 kts | 180° |
| 2026-04-21 23:56 | -17.82127 | -63.20403 | 3360 ft | 133 kts | 142° |
| 2026-04-21 23:57 | -17.82623 | -63.19603 | 3665 ft | 133 kts | 104° |
| 2026-04-21 23:57 | -17.82565 | -63.18649 | 3917 ft | 132 kts | 67° |
| 2026-04-21 23:57 | -17.81982 | -63.17934 | 4182 ft | 130 kts | 29° |
| 2026-04-21 23:57 | -17.81114 | -63.17744 | 4447 ft | 129 kts | 352° |
| 2026-04-21 23:58 | -17.80333 | -63.18143 | 4708 ft | 128 kts | 314° |
| 2026-04-21 23:58 | -17.79949 | -63.18970 | 4964 ft | 128 kts | 277° |
| 2026-04-21 23:58 | -17.80135 | -63.19867 | 5226 ft | 129 kts | 239° |
| 2026-04-21 23:58 | -17.80820 | -63.20466 | 5470 ft | 135 kts | 201° |
| 2026-04-21 23:59 | -17.81782 | -63.20529 | 5733 ft | 148 kts | 167° |
| 2026-04-21 23:59 | -17.82687 | -63.19987 | 5999 ft | 154 kts | 134° |
| 2026-04-21 23:59 | -17.83197 | -63.18990 | 6276 ft | 158 kts | 102° |
| 2026-04-21 23:59 | -17.83137 | -63.17842 | 6543 ft | 159 kts | 70° |
| 2026-04-22 00:00 | -17.82522 | -63.16889 | 6799 ft | 160 kts | 39° |
| 2026-04-22 00:00 | -17.81539 | -63.16404 | 7055 ft | 160 kts | 9° |
| 2026-04-22 00:00 | -17.80442 | -63.16516 | 7317 ft | 160 kts | 339° |
| 2026-04-22 00:00 | -17.79611 | -63.17252 | 7571 ft | 161 kts | 297° |
| 2026-04-22 00:01 | -17.79437 | -63.18406 | 7836 ft | 161 kts | 275° |
| 2026-04-22 00:01 | -17.79255 | -63.19564 | 8096 ft | 161 kts | 282° |
| 2026-04-22 00:01 | -17.79043 | -63.20724 | 8368 ft | 161 kts | 281° |
| 2026-04-22 00:01 | -17.78836 | -63.21883 | 8634 ft | 162 kts | 281° |
| 2026-04-22 00:02 | -17.78629 | -63.23033 | 8896 ft | 162 kts | 282° |
| 2026-04-22 00:02 | -17.78420 | -63.24193 | 9184 ft | 162 kts | 282° |
| 2026-04-22 00:02 | -17.78211 | -63.25356 | 9463 ft | 162 kts | 282° |
| 2026-04-22 00:02 | -17.78006 | -63.26525 | 9732 ft | 162 kts | 282° |
| 2026-04-22 00:03 | -17.77803 | -63.27688 | 9996 ft | 162 kts | 282° |
| 2026-04-22 00:03 | -17.77599 | -63.28853 | 10245 ft | 162 kts | 282° |
| 2026-04-22 00:03 | -17.77393 | -63.30016 | 10497 ft | 162 kts | 281° |
| 2026-04-22 00:03 | -17.77234 | -63.31179 | 10745 ft | 163 kts | 274° |
| 2026-04-22 00:04 | -17.77202 | -63.32367 | 10999 ft | 163 kts | 272° |
| 2026-04-22 00:04 | -17.77170 | -63.33563 | 11262 ft | 163 kts | 272° |
| 2026-04-22 00:04 | -17.77138 | -63.34754 | 11523 ft | 163 kts | 272° |
| 2026-04-22 00:04 | -17.77107 | -63.35934 | 11782 ft | 164 kts | 272° |
| 2026-04-22 00:05 | -17.77071 | -63.37131 | 12048 ft | 164 kts | 272° |
| 2026-04-22 00:05 | -17.77035 | -63.38330 | 12319 ft | 164 kts | 272° |
| 2026-04-22 00:05 | -17.76999 | -63.39530 | 12587 ft | 164 kts | 272° |
| 2026-04-22 00:05 | -17.76960 | -63.40728 | 12861 ft | 164 kts | 273° |
| 2026-04-22 00:06 | -17.76919 | -63.41909 | 13134 ft | 164 kts | 272° |
| 2026-04-22 00:06 | -17.76877 | -63.43109 | 13410 ft | 164 kts | 273° |
| 2026-04-22 00:06 | -17.76834 | -63.44314 | 13691 ft | 164 kts | 273° |
| 2026-04-22 00:06 | -17.76790 | -63.45515 | 13936 ft | 165 kts | 272° |
| 2026-04-22 00:07 | -17.76758 | -63.46771 | 13969 ft | 179 kts | 272° |
| 2026-04-22 00:07 | -17.76730 | -63.48092 | 13987 ft | 187 kts | 271° |
| 2026-04-22 00:07 | -17.76702 | -63.49476 | 13985 ft | 192 kts | 271° |
| 2026-04-22 00:07 | -17.76674 | -63.50889 | 13987 ft | 195 kts | 271° |
| 2026-04-22 00:08 | -17.76645 | -63.52327 | 13993 ft | 196 kts | 271° |
| 2026-04-22 00:08 | -17.76617 | -63.53762 | 13998 ft | 197 kts | 271° |
| 2026-04-22 00:08 | -17.76587 | -63.55189 | 14002 ft | 198 kts | 271° |
| 2026-04-22 00:08 | -17.76558 | -63.56634 | 14002 ft | 198 kts | 271° |
| 2026-04-22 00:09 | -17.76529 | -63.58084 | 14002 ft | 198 kts | 271° |
| 2026-04-22 00:09 | -17.76499 | -63.59533 | 14008 ft | 198 kts | 271° |
| 2026-04-22 00:09 | -17.76469 | -63.60982 | 14011 ft | 199 kts | 271° |
| 2026-04-22 00:09 | -17.76439 | -63.62437 | 14008 ft | 199 kts | 271° |
| 2026-04-22 00:10 | -17.76408 | -63.63884 | 14013 ft | 198 kts | 271° |
| 2026-04-22 00:10 | -17.76377 | -63.65332 | 14014 ft | 198 kts | 271° |
| 2026-04-22 00:10 | -17.76347 | -63.66784 | 14019 ft | 199 kts | 271° |
| 2026-04-22 00:10 | -17.76315 | -63.68214 | 14020 ft | 199 kts | 271° |
| 2026-04-22 00:11 | -17.76282 | -63.69669 | 14022 ft | 199 kts | 271° |
| 2026-04-22 00:11 | -17.76247 | -63.71130 | 14021 ft | 199 kts | 271° |
| 2026-04-22 00:11 | -17.76213 | -63.72582 | 14027 ft | 199 kts | 272° |
| 2026-04-22 00:11 | -17.76175 | -63.74004 | 14185 ft | 191 kts | 272° |
| 2026-04-22 00:12 | -17.76137 | -63.75381 | 14359 ft | 187 kts | 272° |
| 2026-04-22 00:12 | -17.76098 | -63.76715 | 14535 ft | 184 kts | 272° |
| 2026-04-22 00:12 | -17.76059 | -63.78046 | 14715 ft | 182 kts | 272° |
| 2026-04-22 00:12 | -17.76018 | -63.79370 | 14894 ft | 181 kts | 272° |
| 2026-04-22 00:13 | -17.75975 | -63.80692 | 15026 ft | 183 kts | 272° |
| 2026-04-22 00:13 | -17.75931 | -63.82045 | 15027 ft | 191 kts | 272° |
| 2026-04-22 00:13 | -17.75886 | -63.83460 | 15036 ft | 195 kts | 272° |
| 2026-04-22 00:13 | -17.75841 | -63.84889 | 15042 ft | 197 kts | 272° |
| 2026-04-22 00:14 | -17.75795 | -63.86333 | 15047 ft | 199 kts | 272° |
| 2026-04-22 00:14 | -17.75749 | -63.87772 | 15048 ft | 200 kts | 272° |
| 2026-04-22 00:14 | -17.75702 | -63.89235 | 15053 ft | 200 kts | 272° |
| 2026-04-22 00:14 | -17.75654 | -63.90695 | 15052 ft | 200 kts | 272° |
| 2026-04-22 00:15 | -17.75606 | -63.92158 | 15055 ft | 201 kts | 272° |
| 2026-04-22 00:15 | -17.75557 | -63.93612 | 15057 ft | 201 kts | 272° |
| 2026-04-22 00:15 | -17.75507 | -63.95080 | 15061 ft | 201 kts | 272° |
| 2026-04-22 00:15 | -17.75457 | -63.96544 | 15059 ft | 201 kts | 272° |
| 2026-04-22 00:16 | -17.75409 | -63.98010 | 15062 ft | 201 kts | 272° |
| 2026-04-22 00:16 | -17.75361 | -63.99478 | 15064 ft | 201 kts | 272° |
| 2026-04-22 00:16 | -17.75312 | -64.00947 | 15065 ft | 201 kts | 272° |
| 2026-04-22 00:16 | -17.75262 | -64.02417 | 15070 ft | 201 kts | 272° |
| 2026-04-22 00:17 | -17.75211 | -64.03871 | 15069 ft | 201 kts | 272° |
| 2026-04-22 00:17 | -17.75158 | -64.05340 | 15071 ft | 202 kts | 272° |
| 2026-04-22 00:17 | -17.75104 | -64.06807 | 15075 ft | 202 kts | 272° |
| 2026-04-22 00:17 | -17.75049 | -64.08283 | 15076 ft | 202 kts | 272° |
| 2026-04-22 00:18 | -17.74993 | -64.09755 | 15074 ft | 202 kts | 272° |
| 2026-04-22 00:18 | -17.74938 | -64.11213 | 15083 ft | 202 kts | 272° |
| 2026-04-22 00:18 | -17.74882 | -64.12684 | 15083 ft | 202 kts | 272° |
| 2026-04-22 00:18 | -17.74824 | -64.14156 | 15082 ft | 202 kts | 272° |
| 2026-04-22 00:19 | -17.74764 | -64.15629 | 15084 ft | 202 kts | 272° |
| 2026-04-22 00:19 | -17.74704 | -64.17110 | 15087 ft | 202 kts | 272° |
| 2026-04-22 00:19 | -17.74643 | -64.18585 | 15089 ft | 202 kts | 272° |
| 2026-04-22 00:19 | -17.74582 | -64.20064 | 15093 ft | 203 kts | 272° |
| 2026-04-22 00:20 | -17.74520 | -64.21520 | 15095 ft | 203 kts | 272° |
| 2026-04-22 00:20 | -17.74457 | -64.23000 | 15096 ft | 203 kts | 272° |
| 2026-04-22 00:20 | -17.74392 | -64.24485 | 15096 ft | 203 kts | 272° |
| 2026-04-22 00:20 | -17.74328 | -64.25969 | 15101 ft | 203 kts | 272° |
| 2026-04-22 00:21 | -17.74263 | -64.27450 | 15100 ft | 203 kts | 272° |
| 2026-04-22 00:21 | -17.74195 | -64.28935 | 15100 ft | 203 kts | 272° |
| 2026-04-22 00:21 | -17.74129 | -64.30422 | 15103 ft | 203 kts | 272° |
| 2026-04-22 00:21 | -17.74065 | -64.31884 | 15108 ft | 203 kts | 272° |
| 2026-04-22 00:22 | -17.74001 | -64.33369 | 15108 ft | 203 kts | 272° |
| 2026-04-22 00:22 | -17.73936 | -64.34853 | 15111 ft | 204 kts | 272° |
| 2026-04-22 00:22 | -17.73871 | -64.36336 | 15112 ft | 204 kts | 272° |
| 2026-04-22 00:22 | -17.73806 | -64.37819 | 15111 ft | 203 kts | 272° |
| 2026-04-22 00:23 | -17.73762 | -64.38802 | 15113 ft | 203 kts | 272° |
| 2026-04-22 00:23 | -17.73694 | -64.40284 | 15113 ft | 203 kts | 272° |
| 2026-04-22 00:23 | -17.73606 | -64.42249 | 15116 ft | 203 kts | 272° |
| 2026-04-22 00:23 | -17.73540 | -64.43729 | 15120 ft | 203 kts | 272° |
| 2026-04-22 00:24 | -17.73475 | -64.45213 | 15120 ft | 203 kts | 272° |
| 2026-04-22 00:24 | -17.73430 | -64.46217 | 15124 ft | 203 kts | 272° |
| 2026-04-22 00:24 | -17.73364 | -64.47677 | 15125 ft | 203 kts | 272° |
| 2026-04-22 00:24 | -17.73297 | -64.49165 | 15125 ft | 203 kts | 272° |
| 2026-04-22 00:25 | -17.73229 | -64.50649 | 15129 ft | 203 kts | 272° |
| 2026-04-22 00:25 | -17.73140 | -64.52615 | 15132 ft | 203 kts | 272° |
| 2026-04-22 00:25 | -17.73095 | -64.53614 | 15131 ft | 203 kts | 272° |
| 2026-04-22 00:25 | -17.73027 | -64.55099 | 15137 ft | 203 kts | 272° |
| 2026-04-22 00:26 | -17.72959 | -64.56586 | 15132 ft | 204 kts | 272° |
| 2026-04-22 00:26 | -17.72892 | -64.58050 | 15139 ft | 204 kts | 272° |
| 2026-04-22 00:26 | -17.72824 | -64.59540 | 15140 ft | 204 kts | 272° |
| 2026-04-22 00:26 | -17.72755 | -64.61026 | 15142 ft | 204 kts | 272° |
| 2026-04-22 00:27 | -17.72686 | -64.62519 | 15141 ft | 204 kts | 272° |
| 2026-04-22 00:27 | -17.72617 | -64.63983 | 15143 ft | 204 kts | 272° |
| 2026-04-22 00:27 | -17.72548 | -64.65474 | 15147 ft | 204 kts | 272° |
| 2026-04-22 00:27 | -17.72479 | -64.66959 | 15150 ft | 204 kts | 272° |
| 2026-04-22 00:28 | -17.72410 | -64.68447 | 15150 ft | 204 kts | 272° |
| 2026-04-22 00:28 | -17.72341 | -64.69916 | 15149 ft | 204 kts | 272° |
| 2026-04-22 00:28 | -17.72270 | -64.71421 | 15151 ft | 204 kts | 272° |
| 2026-04-22 00:28 | -17.72202 | -64.72886 | 15156 ft | 204 kts | 272° |
| 2026-04-22 00:29 | -17.72132 | -64.74371 | 15158 ft | 204 kts | 272° |
| 2026-04-22 00:29 | -17.72062 | -64.75860 | 15157 ft | 204 kts | 272° |
| 2026-04-22 00:29 | -17.71993 | -64.77351 | 15161 ft | 204 kts | 272° |
| 2026-04-22 00:29 | -17.71924 | -64.78839 | 15162 ft | 204 kts | 272° |
| 2026-04-22 00:30 | -17.71855 | -64.80322 | 15163 ft | 204 kts | 272° |
| 2026-04-22 00:30 | -17.71786 | -64.81794 | 15168 ft | 204 kts | 272° |
| 2026-04-22 00:30 | -17.71715 | -64.83298 | 15168 ft | 204 kts | 272° |
| 2026-04-22 00:30 | -17.71645 | -64.84782 | 15167 ft | 203 kts | 272° |
| 2026-04-22 00:31 | -17.71575 | -64.86247 | 15173 ft | 203 kts | 272° |
| 2026-04-22 00:31 | -17.71505 | -64.87728 | 15172 ft | 204 kts | 272° |
| 2026-04-22 00:31 | -17.71434 | -64.89214 | 15173 ft | 204 kts | 272° |
| 2026-04-22 00:31 | -17.71363 | -64.90699 | 15177 ft | 204 kts | 272° |
| 2026-04-22 00:32 | -17.71291 | -64.92187 | 15178 ft | 204 kts | 272° |
| 2026-04-22 00:32 | -17.71220 | -64.93677 | 15179 ft | 204 kts | 272° |
| 2026-04-22 00:32 | -17.71149 | -64.95146 | 15184 ft | 204 kts | 272° |
| 2026-04-22 00:32 | -17.71077 | -64.96640 | 15180 ft | 204 kts | 272° |
| 2026-04-22 00:33 | -17.71004 | -64.98111 | 15182 ft | 204 kts | 272° |
| 2026-04-22 00:33 | -17.70930 | -64.99602 | 15189 ft | 204 kts | 272° |
| 2026-04-22 00:33 | -17.70856 | -65.01100 | 15187 ft | 204 kts | 272° |
| 2026-04-22 00:33 | -17.70783 | -65.02565 | 15187 ft | 204 kts | 272° |
| 2026-04-22 00:34 | -17.70709 | -65.04070 | 15190 ft | 204 kts | 272° |
| 2026-04-22 00:34 | -17.70636 | -65.05530 | 15191 ft | 204 kts | 272° |
| 2026-04-22 00:34 | -17.70560 | -65.07018 | 15192 ft | 204 kts | 272° |
| 2026-04-22 00:34 | -17.70486 | -65.08506 | 15195 ft | 204 kts | 272° |
| 2026-04-22 00:35 | -17.70411 | -65.09986 | 15194 ft | 204 kts | 272° |
| 2026-04-22 00:35 | -17.70336 | -65.11478 | 15186 ft | 204 kts | 272° |
| 2026-04-22 00:35 | -17.70260 | -65.12960 | 15198 ft | 204 kts | 272° |
| 2026-04-22 00:35 | -17.70185 | -65.14448 | 15202 ft | 204 kts | 272° |
| 2026-04-22 00:36 | -17.70110 | -65.15918 | 15205 ft | 203 kts | 272° |
| 2026-04-22 00:36 | -17.70033 | -65.17403 | 15200 ft | 203 kts | 272° |
| 2026-04-22 00:36 | -17.69955 | -65.18891 | 15206 ft | 203 kts | 272° |
| 2026-04-22 00:36 | -17.69879 | -65.20357 | 15212 ft | 203 kts | 272° |
| 2026-04-22 00:37 | -17.69801 | -65.21854 | 15216 ft | 203 kts | 272° |
| 2026-04-22 00:37 | -17.69724 | -65.23315 | 15215 ft | 203 kts | 272° |
| 2026-04-22 00:37 | -17.69645 | -65.24798 | 15217 ft | 203 kts | 272° |
| 2026-04-22 00:37 | -17.69567 | -65.26280 | 15218 ft | 203 kts | 272° |
| 2026-04-22 00:38 | -17.69486 | -65.27762 | 15217 ft | 203 kts | 272° |
| 2026-04-22 00:38 | -17.69407 | -65.29245 | 15226 ft | 203 kts | 272° |
| 2026-04-22 00:38 | -17.69328 | -65.30706 | 15226 ft | 203 kts | 273° |
| 2026-04-22 00:38 | -17.69244 | -65.32195 | 15230 ft | 203 kts | 273° |
| 2026-04-22 00:39 | -17.69162 | -65.33681 | 15233 ft | 204 kts | 273° |
| 2026-04-22 00:39 | -17.69079 | -65.35167 | 15233 ft | 204 kts | 273° |
| 2026-04-22 00:39 | -17.68993 | -65.36653 | 15238 ft | 203 kts | 274° |
| 2026-04-22 00:39 | -17.68682 | -65.38080 | 15241 ft | 203 kts | 287° |
| 2026-04-22 00:40 | -17.68241 | -65.39494 | 15241 ft | 203 kts | 288° |
| 2026-04-22 00:40 | -17.67944 | -65.40948 | 15242 ft | 203 kts | 275° |
| 2026-04-22 00:40 | -17.67827 | -65.42430 | 15248 ft | 203 kts | 274° |
| 2026-04-22 00:40 | -17.67720 | -65.43885 | 15249 ft | 203 kts | 274° |
| 2026-04-22 00:41 | -17.67611 | -65.45370 | 15252 ft | 203 kts | 274° |
| 2026-04-22 00:41 | -17.67503 | -65.46850 | 15255 ft | 204 kts | 274° |
| 2026-04-22 00:41 | -17.67394 | -65.48331 | 15255 ft | 203 kts | 274° |
| 2026-04-22 00:41 | -17.67284 | -65.49817 | 15257 ft | 203 kts | 274° |
| 2026-04-22 00:42 | -17.67176 | -65.51277 | 15258 ft | 203 kts | 274° |
| 2026-04-22 00:42 | -17.67068 | -65.52758 | 15256 ft | 203 kts | 274° |
| 2026-04-22 00:42 | -17.66961 | -65.54241 | 15259 ft | 203 kts | 274° |
| 2026-04-22 00:42 | -17.66854 | -65.55721 | 15261 ft | 204 kts | 274° |
| 2026-04-22 00:43 | -17.66746 | -65.57201 | 15262 ft | 204 kts | 274° |
| 2026-04-22 00:43 | -17.66637 | -65.58688 | 15263 ft | 204 kts | 274° |
| 2026-04-22 00:43 | -17.66529 | -65.60153 | 15263 ft | 204 kts | 274° |
| 2026-04-22 00:43 | -17.66419 | -65.61637 | 15256 ft | 204 kts | 274° |
| 2026-04-22 00:44 | -17.66309 | -65.63126 | 15260 ft | 204 kts | 274° |
| 2026-04-22 00:44 | -17.66198 | -65.64613 | 15264 ft | 204 kts | 274° |
| 2026-04-22 00:44 | -17.66089 | -65.66093 | 15264 ft | 204 kts | 274° |
| 2026-04-22 00:44 | -17.65980 | -65.67562 | 15263 ft | 204 kts | 274° |
| 2026-04-22 00:45 | -17.65869 | -65.69046 | 15263 ft | 204 kts | 274° |
| 2026-04-22 00:45 | -17.65757 | -65.70529 | 15255 ft | 204 kts | 274° |
| 2026-04-22 00:45 | -17.65645 | -65.72017 | 15269 ft | 203 kts | 274° |
| 2026-04-22 00:45 | -17.65533 | -65.73512 | 15170 ft | 208 kts | 274° |
| 2026-04-22 00:46 | -17.65422 | -65.75037 | 15081 ft | 210 kts | 274° |
| 2026-04-22 00:46 | -17.65313 | -65.76568 | 14994 ft | 211 kts | 274° |
| 2026-04-22 00:46 | -17.65206 | -65.78090 | 14903 ft | 211 kts | 274° |
| 2026-04-22 00:46 | -17.65098 | -65.79631 | 14809 ft | 212 kts | 274° |
| 2026-04-22 00:47 | -17.64992 | -65.81168 | 14719 ft | 212 kts | 274° |
| 2026-04-22 00:47 | -17.64885 | -65.82712 | 14631 ft | 212 kts | 274° |
| 2026-04-22 00:47 | -17.64779 | -65.84250 | 14537 ft | 212 kts | 274° |
| 2026-04-22 00:47 | -17.64678 | -65.85743 | 14447 ft | 212 kts | 274° |
| 2026-04-22 00:48 | -17.64575 | -65.87268 | 14356 ft | 211 kts | 274° |
| 2026-04-22 00:48 | -17.64244 | -65.88752 | 14253 ft | 211 kts | 298° |
| 2026-04-22 00:48 | -17.63484 | -65.90073 | 14166 ft | 210 kts | 301° |
| 2026-04-22 00:48 | -17.62762 | -65.91394 | 14088 ft | 210 kts | 300° |
| 2026-04-22 00:49 | -17.62038 | -65.92726 | 13983 ft | 210 kts | 300° |
| 2026-04-22 00:49 | -17.61310 | -65.94062 | 13883 ft | 210 kts | 300° |
| 2026-04-22 00:49 | -17.60591 | -65.95380 | 13786 ft | 210 kts | 300° |
| 2026-04-22 00:49 | -17.59858 | -65.96724 | 13618 ft | 212 kts | 300° |
| 2026-04-22 00:50 | -17.59119 | -65.98074 | 13449 ft | 214 kts | 300° |
| 2026-04-22 00:50 | -17.58382 | -65.99421 | 13272 ft | 214 kts | 300° |
| 2026-04-22 00:50 | -17.57640 | -66.00775 | 13105 ft | 214 kts | 300° |
| 2026-04-22 00:50 | -17.56809 | -66.02069 | 12923 ft | 214 kts | 309° |
| 2026-04-22 00:51 | -17.55852 | -66.03253 | 12767 ft | 208 kts | 310° |
| 2026-04-22 00:51 | -17.54956 | -66.04350 | 12591 ft | 190 kts | 310° |
| 2026-04-22 00:51 | -17.54124 | -66.05362 | 12403 ft | 184 kts | 310° |
| 2026-04-22 00:51 | -17.53289 | -66.06372 | 12212 ft | 182 kts | 310° |
| 2026-04-22 00:52 | -17.52399 | -66.07307 | 12030 ft | 181 kts | 319° |
| 2026-04-22 00:52 | -17.51470 | -66.08191 | 11854 ft | 181 kts | 315° |
| 2026-04-22 00:52 | -17.50655 | -66.09202 | 11662 ft | 181 kts | 307° |
| 2026-04-22 00:52 | -17.49795 | -66.09965 | 11498 ft | 141 kts | 326° |
| 2026-04-22 00:53 | -17.49032 | -66.10518 | 11244 ft | 131 kts | 323° |
| 2026-04-22 00:53 | -17.48282 | -66.11105 | 10992 ft | 132 kts | 319° |
| 2026-04-22 00:53 | -17.47595 | -66.11733 | 10734 ft | 131 kts | 314° |
| 2026-04-22 00:53 | -17.46888 | -66.12328 | 10565 ft | 128 kts | 331° |
| 2026-04-22 00:54 | -17.46135 | -66.12769 | 10481 ft | 131 kts | 320° |
| 2026-04-22 00:54 | -17.45363 | -66.13213 | 10390 ft | 128 kts | 333° |
| 2026-04-22 00:54 | -17.44577 | -66.13663 | 10199 ft | 132 kts | 329° |
| 2026-04-22 00:54 | -17.43809 | -66.14174 | 9998 ft | 116 kts | 325° |
| 2026-04-22 00:55 | -17.43229 | -66.14621 | 9897 ft | 92 kts | 330° |
| 2026-04-22 00:55 | -17.42652 | -66.14815 | 9700 ft | 80 kts | 349° |
| 2026-04-22 00:55 | -17.41646 | -66.15212 | 9369 ft | 84 kts | 330° |
| 2026-04-22 00:56 | -17.41206 | -66.15585 | 9251 ft | 100 kts | 309° |
| 2026-04-22 00:56 | -17.40955 | -66.16109 | 9055 ft | 99 kts | 281° |
| 2026-04-22 00:56 | -17.41071 | -66.16793 | 8644 ft | 93 kts | 233° |
| 2026-04-22 00:56 | -17.41514 | -66.17238 | 8373 ft | 79 kts | 215° |
| 2026-04-22 00:57 | -17.41825 | -66.17482 | 8361 ft | 24 kts | 220° |
| 2026-04-22 00:57 | -17.41853 | -66.17507 | 8361 ft | 9 kts | 221° |
| 2026-04-22 00:57 | -17.41933 | -66.17580 | 8361 ft | 18 kts | 182° |
| 2026-04-22 00:57 | -17.41886 | -66.17522 | 8361 ft | 21 kts | 31° |
| 2026-04-22 00:58 | -17.41854 | -66.17444 | 8361 ft | 14 kts | 140° |
| 2026-04-22 00:58 | -17.41931 | -66.17386 | 8361 ft | 13 kts | 180° |
| 2026-04-22 00:58 | -17.41956 | -66.17405 | 8361 ft | 0 kts | 235° |